sensor_id;sensor_type;location;lat;lon;timestamp;P1;durP1;ratioP1;P2;durP2;ratioP2
3677;SDS011;1855;50.934;6.958;2024-02-14T05:31:28;2.60;;;1.10;;
3677;SDS011;1855;50.934;6.958;2024-02-14T05:34:09;1.70;;;0.90;;
3677;SDS011;1855;50.934;6.958;2024-02-14T05:36:36;1.80;;;1.00;;
3677;SDS011;1855;50.934;6.958;2024-02-14T05:39:03;1.90;;;0.90;;
3677;SDS011;1855;50.934;6.958;2024-02-14T05:41:31;2.60;;;1.15;;
3677;SDS011;1855;50.934;6.958;2024-02-14T05:43:58;2.33;;;1.15;;
3677;SDS011;1855;50.934;6.958;2024-02-14T05:46:26;1.75;;;1.20;;
3677;SDS011;1855;50.934;6.958;2024-02-14T05:48:53;1.95;;;1.30;;
3677;SDS011;1855;50.934;6.958;2024-02-14T05:51:22;2.10;;;1.30;;
3677;SDS011;1855;50.934;6.958;2024-02-14T05:53:49;1.30;;;1.00;;
3677;SDS011;1855;50.934;6.958;2024-02-14T05:56:15;2.00;;;1.25;;
3677;SDS011;1855;50.934;6.958;2024-02-14T05:58:42;2.78;;;1.40;;
3677;SDS011;1855;50.934;6.958;2024-02-14T06:01:09;2.17;;;1.30;;
3677;SDS011;1855;50.934;6.958;2024-02-14T06:03:37;1.92;;;1.58;;
3677;SDS011;1855;50.934;6.958;2024-02-14T06:06:04;2.35;;;1.50;;
3677;SDS011;1855;50.934;6.958;2024-02-14T06:08:31;2.38;;;1.73;;
3677;SDS011;1855;50.934;6.958;2024-02-14T06:10:58;2.08;;;1.60;;
3677;SDS011;1855;50.934;6.958;2024-02-14T06:13:24;2.05;;;1.85;;
3677;SDS011;1855;50.934;6.958;2024-02-14T06:15:51;2.47;;;1.80;;
3677;SDS011;1855;50.934;6.958;2024-02-14T06:18:18;3.33;;;1.70;;
3677;SDS011;1855;50.934;6.958;2024-02-14T06:20:46;2.53;;;1.70;;
3677;SDS011;1855;50.934;6.958;2024-02-14T06:23:12;3.00;;;1.70;;
3677;SDS011;1855;50.934;6.958;2024-02-14T06:25:39;6.40;;;2.20;;
3677;SDS011;1855;50.934;6.958;2024-02-14T06:28:06;2.88;;;1.90;;
3677;SDS011;1855;50.934;6.958;2024-02-14T06:30:34;2.90;;;2.00;;
3677;SDS011;1855;50.934;6.958;2024-02-14T06:33:01;3.30;;;1.60;;
3677;SDS011;1855;50.934;6.958;2024-02-14T06:35:28;2.13;;;1.60;;
3677;SDS011;1855;50.934;6.958;2024-02-14T06:37:56;2.00;;;1.75;;
3677;SDS011;1855;50.934;6.958;2024-02-14T06:40:23;2.10;;;1.50;;
3677;SDS011;1855;50.934;6.958;2024-02-14T06:42:51;2.10;;;1.48;;
3677;SDS011;1855;50.934;6.958;2024-02-14T06:45:19;3.13;;;1.92;;
3677;SDS011;1855;50.934;6.958;2024-02-14T06:47:46;1.90;;;1.60;;
3677;SDS011;1855;50.934;6.958;2024-02-14T06:50:13;2.30;;;1.70;;
3677;SDS011;1855;50.934;6.958;2024-02-14T06:52:40;2.28;;;1.73;;
3677;SDS011;1855;50.934;6.958;2024-02-14T06:55:08;2.10;;;1.58;;
3677;SDS011;1855;50.934;6.958;2024-02-14T06:57:35;3.40;;;1.90;;
3677;SDS011;1855;50.934;6.958;2024-02-14T07:00:02;2.10;;;1.60;;
3677;SDS011;1855;50.934;6.958;2024-02-14T07:02:30;2.20;;;1.13;;
3677;SDS011;1855;50.934;6.958;2024-02-14T07:04:57;2.40;;;1.30;;
3677;SDS011;1855;50.934;6.958;2024-02-14T07:07:24;2.15;;;1.20;;
3677;SDS011;1855;50.934;6.958;2024-02-14T07:09:52;1.70;;;1.20;;
3677;SDS011;1855;50.934;6.958;2024-02-14T07:12:20;1.50;;;1.00;;
3677;SDS011;1855;50.934;6.958;2024-02-14T07:14:47;2.20;;;1.20;;
3677;SDS011;1855;50.934;6.958;2024-02-14T07:17:14;1.70;;;1.10;;
3677;SDS011;1855;50.934;6.958;2024-02-14T07:19:40;2.35;;;1.00;;
3677;SDS011;1855;50.934;6.958;2024-02-14T07:22:08;1.45;;;0.90;;
3677;SDS011;1855;50.934;6.958;2024-02-14T07:24:35;1.73;;;0.90;;
3677;SDS011;1855;50.934;6.958;2024-02-14T07:27:02;1.30;;;0.90;;
3677;SDS011;1855;50.934;6.958;2024-02-14T07:29:30;1.90;;;0.90;;
3677;SDS011;1855;50.934;6.958;2024-02-14T07:32:01;2.27;;;0.90;;
3677;SDS011;1855;50.934;6.958;2024-02-14T07:34:28;1.10;;;0.73;;
3677;SDS011;1855;50.934;6.958;2024-02-14T07:36:55;1.20;;;0.80;;
3677;SDS011;1855;50.934;6.958;2024-02-14T07:39:22;1.50;;;0.80;;
3677;SDS011;1855;50.934;6.958;2024-02-14T07:41:48;2.30;;;0.98;;
3677;SDS011;1855;50.934;6.958;2024-02-14T07:44:15;1.30;;;0.90;;
3677;SDS011;1855;50.934;6.958;2024-02-14T07:46:43;1.58;;;0.80;;
3677;SDS011;1855;50.934;6.958;2024-02-14T07:49:10;1.40;;;1.00;;
3677;SDS011;1855;50.934;6.958;2024-02-14T07:51:37;1.13;;;0.73;;
3677;SDS011;1855;50.934;6.958;2024-02-14T07:54:04;1.90;;;0.85;;
3677;SDS011;1855;50.934;6.958;2024-02-14T07:56:32;2.03;;;0.98;;
3677;SDS011;1855;50.934;6.958;2024-02-14T07:58:58;2.10;;;0.80;;
3677;SDS011;1855;50.934;6.958;2024-02-14T08:01:25;2.08;;;0.90;;
3677;SDS011;1855;50.934;6.958;2024-02-14T08:03:54;1.50;;;0.80;;
3677;SDS011;1855;50.934;6.958;2024-02-14T08:06:21;2.17;;;0.80;;
3677;SDS011;1855;50.934;6.958;2024-02-14T08:08:48;1.50;;;1.00;;
3677;SDS011;1855;50.934;6.958;2024-02-14T08:11:17;2.70;;;1.00;;
3677;SDS011;1855;50.934;6.958;2024-02-14T08:13:44;2.17;;;1.10;;
3677;SDS011;1855;50.934;6.958;2024-02-14T08:16:11;1.98;;;1.10;;
3677;SDS011;1855;50.934;6.958;2024-02-14T08:18:37;4.53;;;1.00;;
3677;SDS011;1855;50.934;6.958;2024-02-14T08:21:07;1.40;;;0.80;;
3677;SDS011;1855;50.934;6.958;2024-02-14T08:23:34;1.60;;;0.80;;
3677;SDS011;1855;50.934;6.958;2024-02-14T08:26:00;2.83;;;1.07;;
3677;SDS011;1855;50.934;6.958;2024-02-14T08:28:28;1.45;;;0.80;;
3677;SDS011;1855;50.934;6.958;2024-02-14T08:30:54;1.40;;;0.80;;
3677;SDS011;1855;50.934;6.958;2024-02-14T08:33:21;1.70;;;0.80;;
3677;SDS011;1855;50.934;6.958;2024-02-14T08:35:48;1.60;;;0.70;;
3677;SDS011;1855;50.934;6.958;2024-02-14T08:38:16;1.40;;;0.73;;
3677;SDS011;1855;50.934;6.958;2024-02-14T08:40:42;1.30;;;0.80;;
3677;SDS011;1855;50.934;6.958;2024-02-14T08:43:09;1.90;;;1.10;;
3677;SDS011;1855;50.934;6.958;2024-02-14T08:45:36;2.07;;;1.00;;
3677;SDS011;1855;50.934;6.958;2024-02-14T08:48:04;2.10;;;1.00;;
3677;SDS011;1855;50.934;6.958;2024-02-14T08:50:32;1.35;;;0.90;;
3677;SDS011;1855;50.934;6.958;2024-02-14T08:52:59;2.90;;;0.90;;
3677;SDS011;1855;50.934;6.958;2024-02-14T08:55:27;1.50;;;0.95;;
3677;SDS011;1855;50.934;6.958;2024-02-14T08:57:57;1.98;;;0.82;;
3677;SDS011;1855;50.934;6.958;2024-02-14T09:00:24;1.40;;;0.90;;
3677;SDS011;1855;50.934;6.958;2024-02-14T09:02:51;1.65;;;0.82;;
3677;SDS011;1855;50.934;6.958;2024-02-14T09:05:18;1.53;;;0.80;;
3677;SDS011;1855;50.934;6.958;2024-02-14T09:07:47;1.60;;;0.80;;
3677;SDS011;1855;50.934;6.958;2024-02-14T09:10:14;1.13;;;0.70;;
3677;SDS011;1855;50.934;6.958;2024-02-14T09:12:42;1.90;;;0.80;;
3677;SDS011;1855;50.934;6.958;2024-02-14T09:15:09;2.42;;;1.00;;
3677;SDS011;1855;50.934;6.958;2024-02-14T09:17:36;1.90;;;0.90;;
3677;SDS011;1855;50.934;6.958;2024-02-14T09:20:04;1.50;;;0.80;;
3677;SDS011;1855;50.934;6.958;2024-02-14T09:22:34;1.92;;;1.10;;
3677;SDS011;1855;50.934;6.958;2024-02-14T09:25:01;1.80;;;0.95;;
3677;SDS011;1855;50.934;6.958;2024-02-14T09:27:29;2.00;;;1.00;;
3677;SDS011;1855;50.934;6.958;2024-02-14T09:29:57;1.60;;;0.90;;
3677;SDS011;1855;50.934;6.958;2024-02-14T09:32:24;3.17;;;1.00;;
3677;SDS011;1855;50.934;6.958;2024-02-14T09:34:51;2.50;;;1.05;;
3677;SDS011;1855;50.934;6.958;2024-02-14T09:37:17;2.40;;;0.90;;
3677;SDS011;1855;50.934;6.958;2024-02-14T09:39:44;1.90;;;1.10;;
3677;SDS011;1855;50.934;6.958;2024-02-14T09:42:12;1.30;;;0.70;;
3677;SDS011;1855;50.934;6.958;2024-02-14T09:44:42;2.20;;;0.90;;
3677;SDS011;1855;50.934;6.958;2024-02-14T09:47:12;1.90;;;0.90;;
3677;SDS011;1855;50.934;6.958;2024-02-14T09:49:41;2.05;;;0.93;;
3677;SDS011;1855;50.934;6.958;2024-02-14T09:52:09;6.00;;;1.20;;
3677;SDS011;1855;50.934;6.958;2024-02-14T09:54:38;1.53;;;0.80;;
3677;SDS011;1855;50.934;6.958;2024-02-14T09:57:05;1.50;;;0.75;;
3677;SDS011;1855;50.934;6.958;2024-02-14T09:59:33;2.05;;;0.77;;
3677;SDS011;1855;50.934;6.958;2024-02-14T10:02:01;2.03;;;0.70;;
3677;SDS011;1855;50.934;6.958;2024-02-14T10:04:29;2.05;;;0.65;;
3677;SDS011;1855;50.934;6.958;2024-02-14T10:06:56;2.00;;;0.60;;
3677;SDS011;1855;50.934;6.958;2024-02-14T10:09:22;1.20;;;0.70;;
3677;SDS011;1855;50.934;6.958;2024-02-14T10:11:51;1.50;;;0.82;;
3677;SDS011;1855;50.934;6.958;2024-02-14T10:14:19;1.40;;;0.80;;
3677;SDS011;1855;50.934;6.958;2024-02-14T10:16:46;1.48;;;0.80;;
3677;SDS011;1855;50.934;6.958;2024-02-14T10:19:15;2.00;;;0.65;;
3677;SDS011;1855;50.934;6.958;2024-02-14T10:21:44;2.17;;;1.00;;
3677;SDS011;1855;50.934;6.958;2024-02-14T10:24:23;1.60;;;0.90;;
3677;SDS011;1855;50.934;6.958;2024-02-14T10:26:51;2.97;;;0.90;;
3677;SDS011;1855;50.934;6.958;2024-02-14T10:29:18;3.80;;;1.55;;
3677;SDS011;1855;50.934;6.958;2024-02-14T10:31:46;3.55;;;1.02;;
3677;SDS011;1855;50.934;6.958;2024-02-14T10:34:13;2.20;;;0.90;;
3677;SDS011;1855;50.934;6.958;2024-02-14T10:36:40;3.42;;;1.20;;
3677;SDS011;1855;50.934;6.958;2024-02-14T10:39:10;1.50;;;1.10;;
3677;SDS011;1855;50.934;6.958;2024-02-14T10:41:37;2.60;;;1.10;;
3677;SDS011;1855;50.934;6.958;2024-02-14T10:44:04;2.58;;;0.80;;
3677;SDS011;1855;50.934;6.958;2024-02-14T10:46:31;1.55;;;0.77;;
3677;SDS011;1855;50.934;6.958;2024-02-14T10:49:02;1.70;;;0.82;;
3677;SDS011;1855;50.934;6.958;2024-02-14T10:51:30;2.00;;;0.80;;
3677;SDS011;1855;50.934;6.958;2024-02-14T10:53:59;1.65;;;0.90;;
3677;SDS011;1855;50.934;6.958;2024-02-14T10:56:31;2.35;;;0.98;;
3677;SDS011;1855;50.934;6.958;2024-02-14T10:58:58;2.30;;;0.90;;
3677;SDS011;1855;50.934;6.958;2024-02-14T11:01:25;2.17;;;0.90;;
3677;SDS011;1855;50.934;6.958;2024-02-14T11:03:55;2.38;;;0.70;;
3677;SDS011;1855;50.934;6.958;2024-02-14T11:06:23;2.33;;;0.90;;
3677;SDS011;1855;50.934;6.958;2024-02-14T11:08:55;1.42;;;0.70;;
3677;SDS011;1855;50.934;6.958;2024-02-14T11:11:23;3.00;;;1.10;;
3677;SDS011;1855;50.934;6.958;2024-02-14T11:13:52;2.00;;;1.00;;
3677;SDS011;1855;50.934;6.958;2024-02-14T11:16:22;2.30;;;0.90;;
3677;SDS011;1855;50.934;6.958;2024-02-14T11:18:53;4.00;;;1.00;;
3677;SDS011;1855;50.934;6.958;2024-02-14T11:21:27;2.60;;;0.90;;
3677;SDS011;1855;50.934;6.958;2024-02-14T11:23:55;1.70;;;0.80;;
3677;SDS011;1855;50.934;6.958;2024-02-14T11:26:25;2.77;;;1.00;;
3677;SDS011;1855;50.934;6.958;2024-02-14T11:28:59;3.38;;;1.10;;
3677;SDS011;1855;50.934;6.958;2024-02-14T11:31:30;2.10;;;1.00;;
3677;SDS011;1855;50.934;6.958;2024-02-14T11:34:02;1.75;;;0.88;;
3677;SDS011;1855;50.934;6.958;2024-02-14T11:36:29;3.10;;;0.90;;
3677;SDS011;1855;50.934;6.958;2024-02-14T11:38:57;2.00;;;0.90;;
3677;SDS011;1855;50.934;6.958;2024-02-14T11:41:28;2.17;;;0.80;;
3677;SDS011;1855;50.934;6.958;2024-02-14T11:43:54;2.30;;;1.00;;
3677;SDS011;1855;50.934;6.958;2024-02-14T11:46:22;2.83;;;0.90;;
3677;SDS011;1855;50.934;6.958;2024-02-14T11:48:49;1.70;;;0.90;;
3677;SDS011;1855;50.934;6.958;2024-02-14T11:51:18;2.58;;;1.00;;
3677;SDS011;1855;50.934;6.958;2024-02-14T11:53:44;2.20;;;0.73;;
3677;SDS011;1855;50.934;6.958;2024-02-14T11:56:12;1.80;;;0.68;;
3677;SDS011;1855;50.934;6.958;2024-02-14T11:58:42;2.13;;;0.68;;
3677;SDS011;1855;50.934;6.958;2024-02-14T12:01:08;1.70;;;0.70;;
3677;SDS011;1855;50.934;6.958;2024-02-14T12:03:37;1.58;;;0.75;;
3677;SDS011;1855;50.934;6.958;2024-02-14T12:06:04;2.10;;;0.73;;
3677;SDS011;1855;50.934;6.958;2024-02-14T12:08:31;2.10;;;0.60;;
3677;SDS011;1855;50.934;6.958;2024-02-14T12:10:59;1.10;;;0.50;;
3677;SDS011;1855;50.934;6.958;2024-02-14T12:13:26;1.35;;;0.60;;
3677;SDS011;1855;50.934;6.958;2024-02-14T12:15:59;1.80;;;0.60;;
3677;SDS011;1855;50.934;6.958;2024-02-14T12:18:26;2.60;;;0.70;;
3677;SDS011;1855;50.934;6.958;2024-02-14T12:20:56;1.63;;;0.77;;
3677;SDS011;1855;50.934;6.958;2024-02-14T12:23:32;1.50;;;0.60;;
3677;SDS011;1855;50.934;6.958;2024-02-14T12:26:01;1.70;;;0.80;;
3677;SDS011;1855;50.934;6.958;2024-02-14T12:28:28;1.50;;;0.70;;
3677;SDS011;1855;50.934;6.958;2024-02-14T12:30:56;1.48;;;0.50;;
3677;SDS011;1855;50.934;6.958;2024-02-14T12:33:25;0.90;;;0.40;;
3677;SDS011;1855;50.934;6.958;2024-02-14T12:35:52;1.23;;;0.50;;
3677;SDS011;1855;50.934;6.958;2024-02-14T12:38:21;1.70;;;0.57;;
3677;SDS011;1855;50.934;6.958;2024-02-14T12:40:48;1.88;;;0.80;;
3677;SDS011;1855;50.934;6.958;2024-02-14T12:43:16;1.00;;;0.50;;
3677;SDS011;1855;50.934;6.958;2024-02-14T12:45:43;1.20;;;0.50;;
3677;SDS011;1855;50.934;6.958;2024-02-14T12:48:10;1.17;;;0.40;;
3677;SDS011;1855;50.934;6.958;2024-02-14T12:50:40;1.20;;;0.40;;
3677;SDS011;1855;50.934;6.958;2024-02-14T12:53:12;0.90;;;0.50;;
3677;SDS011;1855;50.934;6.958;2024-02-14T12:55:39;1.15;;;0.50;;
3677;SDS011;1855;50.934;6.958;2024-02-14T12:58:06;1.00;;;0.40;;
3677;SDS011;1855;50.934;6.958;2024-02-14T13:00:34;1.50;;;0.50;;
3677;SDS011;1855;50.934;6.958;2024-02-14T13:03:01;1.40;;;0.50;;
3677;SDS011;1855;50.934;6.958;2024-02-14T13:05:29;0.82;;;0.50;;
3677;SDS011;1855;50.934;6.958;2024-02-14T13:07:57;1.00;;;0.65;;
3677;SDS011;1855;50.934;6.958;2024-02-14T13:10:25;1.20;;;0.50;;
3677;SDS011;1855;50.934;6.958;2024-02-14T13:12:52;1.35;;;0.60;;
3677;SDS011;1855;50.934;6.958;2024-02-14T13:15:19;0.98;;;0.60;;
3677;SDS011;1855;50.934;6.958;2024-02-14T13:17:45;1.20;;;0.60;;
3677;SDS011;1855;50.934;6.958;2024-02-14T13:20:12;1.58;;;0.52;;
3677;SDS011;1855;50.934;6.958;2024-02-14T13:22:40;1.00;;;0.50;;
3677;SDS011;1855;50.934;6.958;2024-02-14T13:25:08;1.10;;;0.50;;
3677;SDS011;1855;50.934;6.958;2024-02-14T13:27:35;2.28;;;0.65;;
3677;SDS011;1855;50.934;6.958;2024-02-14T13:30:02;1.00;;;0.60;;
3677;SDS011;1855;50.934;6.958;2024-02-14T13:32:29;1.20;;;0.50;;
3677;SDS011;1855;50.934;6.958;2024-02-14T13:34:55;1.40;;;0.60;;
3677;SDS011;1855;50.934;6.958;2024-02-14T13:37:22;1.20;;;0.50;;
3677;SDS011;1855;50.934;6.958;2024-02-14T13:39:49;1.30;;;0.60;;
3677;SDS011;1855;50.934;6.958;2024-02-14T13:42:17;1.10;;;0.60;;
3677;SDS011;1855;50.934;6.958;2024-02-14T13:44:44;1.20;;;0.60;;
3677;SDS011;1855;50.934;6.958;2024-02-14T13:47:11;2.10;;;0.50;;
3677;SDS011;1855;50.934;6.958;2024-02-14T13:49:38;1.40;;;0.50;;
3677;SDS011;1855;50.934;6.958;2024-02-14T13:52:05;1.75;;;0.60;;
3677;SDS011;1855;50.934;6.958;2024-02-14T13:54:32;1.63;;;0.70;;
3677;SDS011;1855;50.934;6.958;2024-02-14T13:56:59;1.80;;;0.60;;
3677;SDS011;1855;50.934;6.958;2024-02-14T13:59:27;1.13;;;0.60;;
3677;SDS011;1855;50.934;6.958;2024-02-14T14:01:54;1.70;;;0.70;;
3677;SDS011;1855;50.934;6.958;2024-02-14T14:04:21;1.30;;;0.60;;
3677;SDS011;1855;50.934;6.958;2024-02-14T14:06:48;1.90;;;0.50;;
3677;SDS011;1855;50.934;6.958;2024-02-14T14:09:14;1.65;;;0.70;;
3677;SDS011;1855;50.934;6.958;2024-02-14T14:11:41;1.90;;;0.80;;
3677;SDS011;1855;50.934;6.958;2024-02-14T14:14:08;1.30;;;0.70;;
3677;SDS011;1855;50.934;6.958;2024-02-14T14:16:42;2.40;;;0.88;;
3677;SDS011;1855;50.934;6.958;2024-02-14T14:19:08;1.63;;;0.77;;
3677;SDS011;1855;50.934;6.958;2024-02-14T14:21:36;1.20;;;0.80;;
3677;SDS011;1855;50.934;6.958;2024-02-14T14:24:04;1.25;;;0.80;;
3677;SDS011;1855;50.934;6.958;2024-02-14T14:26:31;1.30;;;0.80;;
3677;SDS011;1855;50.934;6.958;2024-02-14T14:28:57;1.80;;;1.10;;
3677;SDS011;1855;50.934;6.958;2024-02-14T14:31:24;1.92;;;1.00;;
3677;SDS011;1855;50.934;6.958;2024-02-14T14:33:52;1.60;;;1.00;;
3677;SDS011;1855;50.934;6.958;2024-02-14T14:36:19;1.58;;;1.00;;
3677;SDS011;1855;50.934;6.958;2024-02-14T14:38:46;1.40;;;0.80;;
3677;SDS011;1855;50.934;6.958;2024-02-14T14:41:13;2.00;;;1.00;;
3677;SDS011;1855;50.934;6.958;2024-02-14T14:43:40;2.15;;;1.10;;
3677;SDS011;1855;50.934;6.958;2024-02-14T14:46:07;1.50;;;1.00;;
3677;SDS011;1855;50.934;6.958;2024-02-14T14:48:33;1.40;;;1.10;;
3677;SDS011;1855;50.934;6.958;2024-02-14T14:51:02;1.57;;;1.10;;
3677;SDS011;1855;50.934;6.958;2024-02-14T14:53:29;1.83;;;1.30;;
3677;SDS011;1855;50.934;6.958;2024-02-14T14:55:56;1.97;;;1.30;;
3677;SDS011;1855;50.934;6.958;2024-02-14T14:58:24;2.10;;;1.43;;
3677;SDS011;1855;50.934;6.958;2024-02-14T15:00:53;2.00;;;1.65;;
3677;SDS011;1855;50.934;6.958;2024-02-14T15:03:21;2.90;;;2.30;;
3677;SDS011;1855;50.934;6.958;2024-02-14T15:05:49;2.60;;;2.17;;
3677;SDS011;1855;50.934;6.958;2024-02-14T15:08:18;2.72;;;2.40;;
3677;SDS011;1855;50.934;6.958;2024-02-14T15:10:50;3.42;;;2.30;;
3677;SDS011;1855;50.934;6.958;2024-02-14T15:13:17;3.00;;;2.10;;
3677;SDS011;1855;50.934;6.958;2024-02-14T15:15:44;4.20;;;2.30;;
3677;SDS011;1855;50.934;6.958;2024-02-14T15:18:11;3.60;;;3.30;;
3677;SDS011;1855;50.934;6.958;2024-02-14T15:20:38;3.10;;;2.40;;
3677;SDS011;1855;50.934;6.958;2024-02-14T15:23:04;2.70;;;2.40;;
3677;SDS011;1855;50.934;6.958;2024-02-14T15:25:33;3.30;;;2.50;;
3677;SDS011;1855;50.934;6.958;2024-02-14T15:28:06;4.30;;;2.83;;
3677;SDS011;1855;50.934;6.958;2024-02-14T15:30:34;3.80;;;3.00;;
3677;SDS011;1855;50.934;6.958;2024-02-14T15:33:18;3.55;;;2.80;;
3677;SDS011;1855;50.934;6.958;2024-02-14T15:35:48;3.72;;;3.33;;
3677;SDS011;1855;50.934;6.958;2024-02-14T15:38:16;4.50;;;3.15;;
3677;SDS011;1855;50.934;6.958;2024-02-14T15:40:45;4.05;;;3.40;;
3677;SDS011;1855;50.934;6.958;2024-02-14T15:43:12;4.60;;;4.20;;
3677;SDS011;1855;50.934;6.958;2024-02-14T15:45:39;4.88;;;4.47;;
3677;SDS011;1855;50.934;6.958;2024-02-14T15:48:06;4.20;;;3.85;;
3677;SDS011;1855;50.934;6.958;2024-02-14T15:50:34;6.27;;;4.30;;
3677;SDS011;1855;50.934;6.958;2024-02-14T15:53:01;4.05;;;3.70;;
3677;SDS011;1855;50.934;6.958;2024-02-14T15:55:29;4.45;;;3.67;;
3677;SDS011;1855;50.934;6.958;2024-02-14T15:57:57;5.37;;;3.83;;
3677;SDS011;1855;50.934;6.958;2024-02-14T16:00:24;4.15;;;3.50;;
3677;SDS011;1855;50.934;6.958;2024-02-14T16:02:52;3.70;;;3.40;;
3677;SDS011;1855;50.934;6.958;2024-02-14T16:05:19;3.80;;;3.40;;
3677;SDS011;1855;50.934;6.958;2024-02-14T16:07:45;4.30;;;3.90;;
3677;SDS011;1855;50.934;6.958;2024-02-14T16:10:12;4.97;;;3.90;;
3677;SDS011;1855;50.934;6.958;2024-02-14T16:12:41;4.28;;;3.88;;
3677;SDS011;1855;50.934;6.958;2024-02-14T16:15:10;4.60;;;3.90;;
3677;SDS011;1855;50.934;6.958;2024-02-14T16:17:37;4.25;;;3.75;;
3677;SDS011;1855;50.934;6.958;2024-02-14T16:20:06;4.40;;;4.00;;
3677;SDS011;1855;50.934;6.958;2024-02-14T16:22:33;4.90;;;4.13;;
3677;SDS011;1855;50.934;6.958;2024-02-14T16:25:00;4.47;;;4.07;;
3677;SDS011;1855;50.934;6.958;2024-02-14T16:27:28;4.68;;;4.28;;
3677;SDS011;1855;50.934;6.958;2024-02-14T16:29:54;4.25;;;3.80;;
3677;SDS011;1855;50.934;6.958;2024-02-14T16:32:23;4.50;;;4.10;;
3677;SDS011;1855;50.934;6.958;2024-02-14T16:34:50;4.30;;;3.90;;
3677;SDS011;1855;50.934;6.958;2024-02-14T16:37:16;4.50;;;4.00;;
3677;SDS011;1855;50.934;6.958;2024-02-14T16:39:44;5.55;;;4.50;;
3677;SDS011;1855;50.934;6.958;2024-02-14T16:42:11;4.80;;;4.30;;
3677;SDS011;1855;50.934;6.958;2024-02-14T16:44:39;5.45;;;4.95;;
3677;SDS011;1855;50.934;6.958;2024-02-14T16:47:06;5.80;;;5.20;;
3677;SDS011;1855;50.934;6.958;2024-02-14T16:49:34;6.00;;;5.40;;
3677;SDS011;1855;50.934;6.958;2024-02-14T16:52:01;6.43;;;5.82;;
3677;SDS011;1855;50.934;6.958;2024-02-14T16:54:28;6.20;;;5.60;;
3677;SDS011;1855;50.934;6.958;2024-02-14T16:56:56;7.60;;;6.07;;
3677;SDS011;1855;50.934;6.958;2024-02-14T16:59:30;6.90;;;6.20;;
3677;SDS011;1855;50.934;6.958;2024-02-14T17:01:57;5.63;;;5.13;;
3677;SDS011;1855;50.934;6.958;2024-02-14T17:04:24;5.80;;;5.20;;
3677;SDS011;1855;50.934;6.958;2024-02-14T17:06:53;5.63;;;4.72;;
3677;SDS011;1855;50.934;6.958;2024-02-14T17:09:20;4.75;;;4.35;;
3677;SDS011;1855;50.934;6.958;2024-02-14T17:11:47;4.80;;;4.30;;
3677;SDS011;1855;50.934;6.958;2024-02-14T17:14:14;5.85;;;4.60;;
3677;SDS011;1855;50.934;6.958;2024-02-14T17:16:41;5.30;;;4.80;;
3677;SDS011;1855;50.934;6.958;2024-02-14T17:19:08;5.30;;;4.80;;
3677;SDS011;1855;50.934;6.958;2024-02-14T17:21:35;5.43;;;4.93;;
3677;SDS011;1855;50.934;6.958;2024-02-14T17:24:04;5.70;;;5.10;;
3677;SDS011;1855;50.934;6.958;2024-02-14T17:26:31;5.60;;;5.10;;
3677;SDS011;1855;50.934;6.958;2024-02-14T17:28:58;5.20;;;4.80;;
3677;SDS011;1855;50.934;6.958;2024-02-14T17:31:24;7.00;;;6.13;;
3677;SDS011;1855;50.934;6.958;2024-02-14T17:33:51;7.85;;;7.15;;
3677;SDS011;1855;50.934;6.958;2024-02-14T17:36:20;7.75;;;7.05;;
3677;SDS011;1855;50.934;6.958;2024-02-14T17:38:46;6.50;;;5.90;;
3677;SDS011;1855;50.934;6.958;2024-02-14T17:41:14;8.38;;;6.38;;
3677;SDS011;1855;50.934;6.958;2024-02-14T17:43:41;8.00;;;7.07;;
3677;SDS011;1855;50.934;6.958;2024-02-14T17:46:08;7.35;;;6.65;;
3677;SDS011;1855;50.934;6.958;2024-02-14T17:48:35;6.50;;;5.72;;
3677;SDS011;1855;50.934;6.958;2024-02-14T17:51:02;7.47;;;6.35;;
3677;SDS011;1855;50.934;6.958;2024-02-14T17:53:29;7.32;;;6.50;;
3677;SDS011;1855;50.934;6.958;2024-02-14T17:55:56;7.15;;;6.53;;
3677;SDS011;1855;50.934;6.958;2024-02-14T17:58:24;7.68;;;6.97;;
3677;SDS011;1855;50.934;6.958;2024-02-14T18:00:51;6.80;;;6.20;;
3677;SDS011;1855;50.934;6.958;2024-02-14T18:03:18;7.70;;;7.00;;
3677;SDS011;1855;50.934;6.958;2024-02-14T18:05:45;7.70;;;6.38;;
3677;SDS011;1855;50.934;6.958;2024-02-14T18:08:12;6.35;;;5.45;;
3677;SDS011;1855;50.934;6.958;2024-02-14T18:10:39;6.30;;;5.70;;
3677;SDS011;1855;50.934;6.958;2024-02-14T18:13:06;6.70;;;5.40;;
3677;SDS011;1855;50.934;6.958;2024-02-14T18:15:34;7.03;;;5.45;;
3677;SDS011;1855;50.934;6.958;2024-02-14T18:18:01;6.47;;;5.88;;
3677;SDS011;1855;50.934;6.958;2024-02-14T18:20:29;6.03;;;5.43;;
3677;SDS011;1855;50.934;6.958;2024-02-14T18:22:56;6.50;;;5.90;;
3677;SDS011;1855;50.934;6.958;2024-02-14T18:25:23;6.10;;;5.47;;
3677;SDS011;1855;50.934;6.958;2024-02-14T18:27:50;6.75;;;5.45;;
3677;SDS011;1855;50.934;6.958;2024-02-14T18:30:18;6.90;;;5.63;;
3677;SDS011;1855;50.934;6.958;2024-02-14T18:32:48;6.30;;;5.70;;
3677;SDS011;1855;50.934;6.958;2024-02-14T18:35:15;6.05;;;5.45;;
3677;SDS011;1855;50.934;6.958;2024-02-14T18:37:42;6.22;;;5.40;;
3677;SDS011;1855;50.934;6.958;2024-02-14T18:40:10;5.97;;;5.40;;
3677;SDS011;1855;50.934;6.958;2024-02-14T18:42:37;5.65;;;5.15;;
3677;SDS011;1855;50.934;6.958;2024-02-14T18:45:05;5.10;;;4.35;;
3677;SDS011;1855;50.934;6.958;2024-02-14T18:47:34;4.13;;;3.72;;
3677;SDS011;1855;50.934;6.958;2024-02-14T18:50:02;4.27;;;3.70;;
3677;SDS011;1855;50.934;6.958;2024-02-14T18:52:30;3.90;;;3.50;;
3677;SDS011;1855;50.934;6.958;2024-02-14T18:54:57;3.80;;;3.40;;
3677;SDS011;1855;50.934;6.958;2024-02-14T18:57:24;3.45;;;3.15;;
3677;SDS011;1855;50.934;6.958;2024-02-14T18:59:54;3.05;;;2.83;;
3677;SDS011;1855;50.934;6.958;2024-02-14T19:02:21;2.95;;;2.65;;
3677;SDS011;1855;50.934;6.958;2024-02-14T19:04:47;3.40;;;3.10;;
3677;SDS011;1855;50.934;6.958;2024-02-14T19:07:18;3.30;;;2.83;;
3677;SDS011;1855;50.934;6.958;2024-02-14T19:09:45;3.70;;;3.20;;
3677;SDS011;1855;50.934;6.958;2024-02-14T19:12:12;3.20;;;2.90;;
3677;SDS011;1855;50.934;6.958;2024-02-14T19:14:39;3.42;;;3.10;;
3677;SDS011;1855;50.934;6.958;2024-02-14T19:17:08;3.90;;;3.00;;
3677;SDS011;1855;50.934;6.958;2024-02-14T19:19:35;3.40;;;3.10;;
3677;SDS011;1855;50.934;6.958;2024-02-14T19:22:02;3.60;;;2.97;;
3677;SDS011;1855;50.934;6.958;2024-02-14T19:24:31;3.50;;;3.00;;
3677;SDS011;1855;50.934;6.958;2024-02-14T19:26:57;3.28;;;2.97;;
3677;SDS011;1855;50.934;6.958;2024-02-14T19:29:24;3.63;;;2.60;;
3677;SDS011;1855;50.934;6.958;2024-02-14T19:31:51;3.15;;;2.78;;
3677;SDS011;1855;50.934;6.958;2024-02-14T19:34:18;3.47;;;2.70;;
3677;SDS011;1855;50.934;6.958;2024-02-14T19:36:45;3.08;;;2.40;;
3677;SDS011;1855;50.934;6.958;2024-02-14T19:39:12;2.42;;;2.20;;
3677;SDS011;1855;50.934;6.958;2024-02-14T19:41:41;2.30;;;2.10;;
3677;SDS011;1855;50.934;6.958;2024-02-14T19:44:08;2.20;;;2.00;;
3677;SDS011;1855;50.934;6.958;2024-02-14T19:46:35;2.00;;;1.80;;
3677;SDS011;1855;50.934;6.958;2024-02-14T19:49:01;2.38;;;1.90;;
3677;SDS011;1855;50.934;6.958;2024-02-14T19:51:28;2.20;;;2.00;;
3677;SDS011;1855;50.934;6.958;2024-02-14T19:53:56;2.45;;;2.25;;
3677;SDS011;1855;50.934;6.958;2024-02-14T19:56:22;2.80;;;2.60;;
3677;SDS011;1855;50.934;6.958;2024-02-14T19:58:50;2.80;;;2.30;;
3677;SDS011;1855;50.934;6.958;2024-02-14T20:01:17;2.38;;;2.17;;
3677;SDS011;1855;50.934;6.958;2024-02-14T20:03:44;2.28;;;2.08;;
3677;SDS011;1855;50.934;6.958;2024-02-14T20:06:11;2.75;;;2.30;;
3677;SDS011;1855;50.934;6.958;2024-02-14T20:08:38;2.50;;;2.30;;
3677;SDS011;1855;50.934;6.958;2024-02-14T20:11:06;2.67;;;2.25;;
3677;SDS011;1855;50.934;6.958;2024-02-14T20:13:33;2.50;;;2.00;;
3677;SDS011;1855;50.934;6.958;2024-02-14T20:16:02;2.88;;;2.30;;
3677;SDS011;1855;50.934;6.958;2024-02-14T20:18:29;2.50;;;2.30;;
3677;SDS011;1855;50.934;6.958;2024-02-14T20:20:56;2.47;;;2.25;;
3677;SDS011;1855;50.934;6.958;2024-02-14T20:23:23;2.53;;;2.33;;
3677;SDS011;1855;50.934;6.958;2024-02-14T20:25:50;2.85;;;2.65;;
3677;SDS011;1855;50.934;6.958;2024-02-14T20:28:16;2.90;;;2.60;;
3677;SDS011;1855;50.934;6.958;2024-02-14T20:30:45;2.67;;;2.47;;
3677;SDS011;1855;50.934;6.958;2024-02-14T20:33:13;2.85;;;2.65;;
3677;SDS011;1855;50.934;6.958;2024-02-14T20:35:40;3.40;;;2.80;;
3677;SDS011;1855;50.934;6.958;2024-02-14T20:38:07;3.78;;;3.15;;
3677;SDS011;1855;50.934;6.958;2024-02-14T20:40:35;3.88;;;3.33;;
3677;SDS011;1855;50.934;6.958;2024-02-14T20:43:02;3.80;;;3.40;;
3677;SDS011;1855;50.934;6.958;2024-02-14T20:45:29;4.13;;;3.72;;
3677;SDS011;1855;50.934;6.958;2024-02-14T20:47:56;4.22;;;3.83;;